sensor_id;sensor_type;location;lat;lon;timestamp;temperature;humidity
44166;DHT22;30476;53.468;9.826;2022-12-18T00:02:17;-0.30;95.30
44166;DHT22;30476;53.468;9.826;2022-12-18T00:04:43;-0.30;95.30
44166;DHT22;30476;53.468;9.826;2022-12-18T00:07:09;-0.30;95.30
44166;DHT22;30476;53.468;9.826;2022-12-18T00:09:35;-0.30;95.30
44166;DHT22;30476;53.468;9.826;2022-12-18T00:12:01;-0.30;95.30
44166;DHT22;30476;53.468;9.826;2022-12-18T00:14:27;-0.30;95.30
44166;DHT22;30476;53.468;9.826;2022-12-18T00:16:52;-0.30;95.30
44166;DHT22;30476;53.468;9.826;2022-12-18T00:19:18;-0.30;95.30
44166;DHT22;30476;53.468;9.826;2022-12-18T00:21:44;-0.30;95.40
44166;DHT22;30476;53.468;9.826;2022-12-18T00:24:11;-0.30;95.40
44166;DHT22;30476;53.468;9.826;2022-12-18T00:26:38;-0.30;95.40
44166;DHT22;30476;53.468;9.826;2022-12-18T00:29:10;-0.40;95.30
44166;DHT22;30476;53.468;9.826;2022-12-18T00:31:37;-0.30;95.40
44166;DHT22;30476;53.468;9.826;2022-12-18T00:34:03;-0.40;95.30
44166;DHT22;30476;53.468;9.826;2022-12-18T00:36:34;-0.40;95.30
44166;DHT22;30476;53.468;9.826;2022-12-18T00:39:02;-0.30;95.40
44166;DHT22;30476;53.468;9.826;2022-12-18T00:41:28;-0.40;95.40
44166;DHT22;30476;53.468;9.826;2022-12-18T00:44:14;-0.50;95.40
44166;DHT22;30476;53.468;9.826;2022-12-18T00:46:42;-0.50;95.40
44166;DHT22;30476;53.468;9.826;2022-12-18T00:49:08;-0.50;95.40
44166;DHT22;30476;53.468;9.826;2022-12-18T00:51:34;-0.50;95.40
44166;DHT22;30476;53.468;9.826;2022-12-18T00:54:00;-0.50;95.40
44166;DHT22;30476;53.468;9.826;2022-12-18T00:56:26;-0.40;95.40
44166;DHT22;30476;53.468;9.826;2022-12-18T00:58:52;-0.40;95.40
44166;DHT22;30476;53.468;9.826;2022-12-18T01:01:18;-0.40;95.30
44166;DHT22;30476;53.468;9.826;2022-12-18T01:03:44;-0.40;95.20
44166;DHT22;30476;53.468;9.826;2022-12-18T01:06:13;-0.40;95.20
44166;DHT22;30476;53.468;9.826;2022-12-18T01:08:39;-0.40;95.10
44166;DHT22;30476;53.468;9.826;2022-12-18T01:11:10;-0.40;95.10
44166;DHT22;30476;53.468;9.826;2022-12-18T01:13:37;-0.40;95.10
44166;DHT22;30476;53.468;9.826;2022-12-18T01:16:03;-0.40;95.10
44166;DHT22;30476;53.468;9.826;2022-12-18T01:18:29;-0.40;95.10
44166;DHT22;30476;53.468;9.826;2022-12-18T01:20:55;-0.40;95.10
44166;DHT22;30476;53.468;9.826;2022-12-18T01:23:21;-0.40;95.00
44166;DHT22;30476;53.468;9.826;2022-12-18T01:25:47;-0.40;94.90
44166;DHT22;30476;53.468;9.826;2022-12-18T01:28:12;-0.40;94.90
44166;DHT22;30476;53.468;9.826;2022-12-18T01:30:38;-0.50;94.90
44166;DHT22;30476;53.468;9.826;2022-12-18T01:33:05;-0.50;94.90
44166;DHT22;30476;53.468;9.826;2022-12-18T01:35:31;-0.50;94.90
44166;DHT22;30476;53.468;9.826;2022-12-18T01:37:57;-0.50;94.90
44166;DHT22;30476;53.468;9.826;2022-12-18T01:40:23;-0.50;94.90
44166;DHT22;30476;53.468;9.826;2022-12-18T01:42:52;-0.50;94.90
44166;DHT22;30476;53.468;9.826;2022-12-18T01:47:56;-0.50;94.80
44166;DHT22;30476;53.468;9.826;2022-12-18T01:50:36;-0.50;94.70
44166;DHT22;30476;53.468;9.826;2022-12-18T01:53:14;-0.50;94.70
44166;DHT22;30476;53.468;9.826;2022-12-18T01:55:47;-0.60;94.60
44166;DHT22;30476;53.468;9.826;2022-12-18T01:58:14;-0.60;94.60
44166;DHT22;30476;53.468;9.826;2022-12-18T02:00:40;-0.60;94.60
44166;DHT22;30476;53.468;9.826;2022-12-18T02:03:06;-0.60;94.60
44166;DHT22;30476;53.468;9.826;2022-12-18T02:05:46;-0.60;94.70
44166;DHT22;30476;53.468;9.826;2022-12-18T02:08:32;-0.60;94.70
44166;DHT22;30476;53.468;9.826;2022-12-18T02:11:07;-0.70;94.60
44166;DHT22;30476;53.468;9.826;2022-12-18T02:13:57;-0.70;94.70
44166;DHT22;30476;53.468;9.826;2022-12-18T02:19:44;-0.60;94.70
44166;DHT22;30476;53.468;9.826;2022-12-18T02:27:49;-0.70;94.70
44166;DHT22;30476;53.468;9.826;2022-12-18T02:30:17;-0.70;94.60
44166;DHT22;30476;53.468;9.826;2022-12-18T02:32:50;-0.60;94.60
44166;DHT22;30476;53.468;9.826;2022-12-18T02:35:21;-0.70;94.50
44166;DHT22;30476;53.468;9.826;2022-12-18T02:37:47;-0.70;94.40
44166;DHT22;30476;53.468;9.826;2022-12-18T02:40:14;-0.70;94.40
44166;DHT22;30476;53.468;9.826;2022-12-18T02:42:41;-0.70;94.40
44166;DHT22;30476;53.468;9.826;2022-12-18T02:45:07;-0.70;94.40
44166;DHT22;30476;53.468;9.826;2022-12-18T02:47:36;-0.70;94.40
44166;DHT22;30476;53.468;9.826;2022-12-18T02:50:22;-0.70;94.40
44166;DHT22;30476;53.468;9.826;2022-12-18T02:53:13;-0.60;94.40
44166;DHT22;30476;53.468;9.826;2022-12-18T03:01:24;-0.70;94.30
44166;DHT22;30476;53.468;9.826;2022-12-18T03:03:58;-0.70;94.30
44166;DHT22;30476;53.468;9.826;2022-12-18T03:06:39;-0.70;94.30
44166;DHT22;30476;53.468;9.826;2022-12-18T03:09:12;-0.70;94.30
44166;DHT22;30476;53.468;9.826;2022-12-18T03:11:43;-0.80;94.30
44166;DHT22;30476;53.468;9.826;2022-12-18T03:14:32;-0.80;94.20
44166;DHT22;30476;53.468;9.826;2022-12-18T03:17:02;-0.80;94.20
44166;DHT22;30476;53.468;9.826;2022-12-18T03:19:30;-0.80;94.10
44166;DHT22;30476;53.468;9.826;2022-12-18T03:21:58;-0.80;94.10
44166;DHT22;30476;53.468;9.826;2022-12-18T03:24:28;-0.80;94.10
44166;DHT22;30476;53.468;9.826;2022-12-18T03:26:58;-0.90;94.00
44166;DHT22;30476;53.468;9.826;2022-12-18T03:29:48;-0.90;94.00
44166;DHT22;30476;53.468;9.826;2022-12-18T03:32:33;-0.90;93.80
44166;DHT22;30476;53.468;9.826;2022-12-18T03:35:04;-1.00;93.60
44166;DHT22;30476;53.468;9.826;2022-12-18T03:37:31;-1.10;93.50
44166;DHT22;30476;53.468;9.826;2022-12-18T03:39:57;-1.20;93.50
44166;DHT22;30476;53.468;9.826;2022-12-18T03:42:29;-1.30;93.60
44166;DHT22;30476;53.468;9.826;2022-12-18T03:45:12;-1.40;93.60
44166;DHT22;30476;53.468;9.826;2022-12-18T03:47:59;-1.50;93.60
44166;DHT22;30476;53.468;9.826;2022-12-18T03:53:03;-1.70;93.70
44166;DHT22;30476;53.468;9.826;2022-12-18T03:55:34;-1.70;93.70
44166;DHT22;30476;53.468;9.826;2022-12-18T03:58:01;-1.80;93.70
44166;DHT22;30476;53.468;9.826;2022-12-18T04:00:28;-1.90;93.70
44166;DHT22;30476;53.468;9.826;2022-12-18T04:02:56;-2.00;93.80
44166;DHT22;30476;53.468;9.826;2022-12-18T04:05:24;-2.00;93.80
44166;DHT22;30476;53.468;9.826;2022-12-18T04:07:51;-2.20;93.80
44166;DHT22;30476;53.468;9.826;2022-12-18T04:10:19;-2.20;93.80
44166;DHT22;30476;53.468;9.826;2022-12-18T04:12:45;-2.20;93.80
44166;DHT22;30476;53.468;9.826;2022-12-18T04:15:12;-2.30;93.90
44166;DHT22;30476;53.468;9.826;2022-12-18T04:17:39;-2.40;93.90
44166;DHT22;30476;53.468;9.826;2022-12-18T04:20:09;-2.50;93.90
44166;DHT22;30476;53.468;9.826;2022-12-18T04:22:34;-2.50;94.00
44166;DHT22;30476;53.468;9.826;2022-12-18T04:25:01;-2.60;94.10
44166;DHT22;30476;53.468;9.826;2022-12-18T04:27:26;-2.60;94.20
44166;DHT22;30476;53.468;9.826;2022-12-18T04:29:52;-2.60;94.30
44166;DHT22;30476;53.468;9.826;2022-12-18T04:32:18;-2.70;94.30
44166;DHT22;30476;53.468;9.826;2022-12-18T04:34:44;-2.70;94.30
44166;DHT22;30476;53.468;9.826;2022-12-18T04:37:09;-2.70;94.30
44166;DHT22;30476;53.468;9.826;2022-12-18T04:39:35;-2.80;94.20
44166;DHT22;30476;53.468;9.826;2022-12-18T04:42:01;-2.90;94.20
44166;DHT22;30476;53.468;9.826;2022-12-18T04:44:27;-2.90;94.10
44166;DHT22;30476;53.468;9.826;2022-12-18T04:46:53;-3.00;94.20
44166;DHT22;30476;53.468;9.826;2022-12-18T04:49:18;-3.00;94.20
44166;DHT22;30476;53.468;9.826;2022-12-18T04:51:44;-3.00;94.20
44166;DHT22;30476;53.468;9.826;2022-12-18T04:54:10;-3.10;94.30
44166;DHT22;30476;53.468;9.826;2022-12-18T04:56:36;-3.20;94.30
44166;DHT22;30476;53.468;9.826;2022-12-18T04:59:01;-3.20;94.40
44166;DHT22;30476;53.468;9.826;2022-12-18T05:01:27;-3.20;94.50
44166;DHT22;30476;53.468;9.826;2022-12-18T05:03:53;-3.30;94.40
44166;DHT22;30476;53.468;9.826;2022-12-18T05:06:19;-3.30;94.30
44166;DHT22;30476;53.468;9.826;2022-12-18T05:08:44;-3.30;94.10
44166;DHT22;30476;53.468;9.826;2022-12-18T05:11:13;-3.40;94.10
44166;DHT22;30476;53.468;9.826;2022-12-18T05:13:42;-3.50;94.00
44166;DHT22;30476;53.468;9.826;2022-12-18T05:16:08;-3.50;94.10
44166;DHT22;30476;53.468;9.826;2022-12-18T05:18:35;-3.50;94.10
44166;DHT22;30476;53.468;9.826;2022-12-18T05:21:01;-3.50;94.20
44166;DHT22;30476;53.468;9.826;2022-12-18T05:23:26;-3.60;94.10
44166;DHT22;30476;53.468;9.826;2022-12-18T05:25:58;-3.70;94.10
44166;DHT22;30476;53.468;9.826;2022-12-18T05:28:25;-3.80;94.20
44166;DHT22;30476;53.468;9.826;2022-12-18T05:30:53;-3.80;94.20
44166;DHT22;30476;53.468;9.826;2022-12-18T05:33:20;-3.80;94.20
44166;DHT22;30476;53.468;9.826;2022-12-18T05:35:53;-3.80;94.30
44166;DHT22;30476;53.468;9.826;2022-12-18T05:38:23;-3.90;94.40
44166;DHT22;30476;53.468;9.826;2022-12-18T05:40:50;-3.90;94.40
44166;DHT22;30476;53.468;9.826;2022-12-18T05:43:18;-3.90;94.50
44166;DHT22;30476;53.468;9.826;2022-12-18T05:45:44;-3.90;94.50
44166;DHT22;30476;53.468;9.826;2022-12-18T05:48:12;-3.90;94.60
44166;DHT22;30476;53.468;9.826;2022-12-18T05:50:40;-3.90;94.60
44166;DHT22;30476;53.468;9.826;2022-12-18T05:53:07;-4.00;94.50
44166;DHT22;30476;53.468;9.826;2022-12-18T05:55:37;-4.00;94.40
44166;DHT22;30476;53.468;9.826;2022-12-18T05:58:05;-4.10;94.40
44166;DHT22;30476;53.468;9.826;2022-12-18T06:00:33;-4.10;94.40
44166;DHT22;30476;53.468;9.826;2022-12-18T06:03:00;-4.20;94.60
44166;DHT22;30476;53.468;9.826;2022-12-18T06:05:26;-4.20;94.50
44166;DHT22;30476;53.468;9.826;2022-12-18T06:07:52;-4.20;94.60
44166;DHT22;30476;53.468;9.826;2022-12-18T06:10:18;-4.30;94.70
44166;DHT22;30476;53.468;9.826;2022-12-18T06:12:44;-4.30;95.50
44166;DHT22;30476;53.468;9.826;2022-12-18T06:15:10;-4.30;96.20
44166;DHT22;30476;53.468;9.826;2022-12-18T06:17:36;-4.30;95.70
44166;DHT22;30476;53.468;9.826;2022-12-18T06:20:03;-4.30;95.40
44166;DHT22;30476;53.468;9.826;2022-12-18T06:22:32;-4.30;95.20
44166;DHT22;30476;53.468;9.826;2022-12-18T06:24:58;-4.30;95.10
44166;DHT22;30476;53.468;9.826;2022-12-18T06:27:24;-4.20;95.00
44166;DHT22;30476;53.468;9.826;2022-12-18T06:29:50;-4.30;94.90
44166;DHT22;30476;53.468;9.826;2022-12-18T06:32:16;-4.30;94.90
44166;DHT22;30476;53.468;9.826;2022-12-18T06:34:42;-4.30;94.80
44166;DHT22;30476;53.468;9.826;2022-12-18T06:37:08;-4.30;94.80
44166;DHT22;30476;53.468;9.826;2022-12-18T06:39:34;-4.30;94.80
44166;DHT22;30476;53.468;9.826;2022-12-18T06:41:59;-4.30;94.70
44166;DHT22;30476;53.468;9.826;2022-12-18T06:44:25;-4.40;94.60
44166;DHT22;30476;53.468;9.826;2022-12-18T06:46:51;-4.40;94.70
44166;DHT22;30476;53.468;9.826;2022-12-18T06:49:17;-4.40;94.60
44166;DHT22;30476;53.468;9.826;2022-12-18T06:51:42;-4.40;94.60
44166;DHT22;30476;53.468;9.826;2022-12-18T06:54:08;-4.40;94.60
44166;DHT22;30476;53.468;9.826;2022-12-18T06:56:34;-4.40;94.60
44166;DHT22;30476;53.468;9.826;2022-12-18T06:59:00;-4.50;94.50
44166;DHT22;30476;53.468;9.826;2022-12-18T07:01:26;-4.50;94.50
44166;DHT22;30476;53.468;9.826;2022-12-18T07:03:53;-4.50;94.50
44166;DHT22;30476;53.468;9.826;2022-12-18T07:06:21;-4.50;94.50
44166;DHT22;30476;53.468;9.826;2022-12-18T07:08:48;-4.50;94.60
44166;DHT22;30476;53.468;9.826;2022-12-18T07:11:15;-4.50;94.70
44166;DHT22;30476;53.468;9.826;2022-12-18T07:13:42;-4.50;94.80
44166;DHT22;30476;53.468;9.826;2022-12-18T07:16:14;-4.50;95.00
44166;DHT22;30476;53.468;9.826;2022-12-18T07:18:40;-4.50;95.20
44166;DHT22;30476;53.468;9.826;2022-12-18T07:21:08;-4.40;95.60
44166;DHT22;30476;53.468;9.826;2022-12-18T07:23:35;-4.30;96.10
44166;DHT22;30476;53.468;9.826;2022-12-18T07:26:06;-4.20;96.30
44166;DHT22;30476;53.468;9.826;2022-12-18T07:28:33;-4.20;96.50
44166;DHT22;30476;53.468;9.826;2022-12-18T07:31:06;-4.10;96.80
44166;DHT22;30476;53.468;9.826;2022-12-18T07:33:33;-4.00;96.90
44166;DHT22;30476;53.468;9.826;2022-12-18T07:36:00;-4.00;97.00
44166;DHT22;30476;53.468;9.826;2022-12-18T07:38:26;-3.80;97.10
44166;DHT22;30476;53.468;9.826;2022-12-18T07:40:51;-3.70;97.20
44166;DHT22;30476;53.468;9.826;2022-12-18T07:43:17;-3.70;97.20
44166;DHT22;30476;53.468;9.826;2022-12-18T07:45:43;-3.60;97.30
44166;DHT22;30476;53.468;9.826;2022-12-18T07:48:10;-3.60;97.30
44166;DHT22;30476;53.468;9.826;2022-12-18T07:50:37;-3.50;97.20
44166;DHT22;30476;53.468;9.826;2022-12-18T07:53:03;-3.40;97.20
44166;DHT22;30476;53.468;9.826;2022-12-18T07:55:31;-3.30;97.20
44166;DHT22;30476;53.468;9.826;2022-12-18T07:58:01;-3.20;97.20
44166;DHT22;30476;53.468;9.826;2022-12-18T08:00:27;-3.20;97.10
44166;DHT22;30476;53.468;9.826;2022-12-18T08:02:53;-3.10;97.00
44166;DHT22;30476;53.468;9.826;2022-12-18T08:05:19;-3.10;97.00
44166;DHT22;30476;53.468;9.826;2022-12-18T08:07:46;-3.00;97.00
44166;DHT22;30476;53.468;9.826;2022-12-18T08:10:12;-3.00;97.00
44166;DHT22;30476;53.468;9.826;2022-12-18T08:12:38;-2.90;97.00
44166;DHT22;30476;53.468;9.826;2022-12-18T08:15:03;-2.90;96.90
44166;DHT22;30476;53.468;9.826;2022-12-18T08:17:29;-2.80;96.90
44166;DHT22;30476;53.468;9.826;2022-12-18T08:19:55;-2.80;96.80
44166;DHT22;30476;53.468;9.826;2022-12-18T08:22:21;-2.70;96.80
44166;DHT22;30476;53.468;9.826;2022-12-18T08:24:47;-2.70;96.70
44166;DHT22;30476;53.468;9.826;2022-12-18T08:27:13;-2.60;96.70
44166;DHT22;30476;53.468;9.826;2022-12-18T08:29:38;-2.60;96.60
44166;DHT22;30476;53.468;9.826;2022-12-18T08:32:04;-2.60;96.50
44166;DHT22;30476;53.468;9.826;2022-12-18T08:34:30;-2.50;96.50
44166;DHT22;30476;53.468;9.826;2022-12-18T08:36:56;-2.60;96.50
44166;DHT22;30476;53.468;9.826;2022-12-18T08:39:22;-2.50;96.50
44166;DHT22;30476;53.468;9.826;2022-12-18T08:41:47;-2.50;96.80
44166;DHT22;30476;53.468;9.826;2022-12-18T08:44:33;-2.50;96.40
44166;DHT22;30476;53.468;9.826;2022-12-18T08:47:06;-2.40;96.50
44166;DHT22;30476;53.468;9.826;2022-12-18T08:49:33;-2.40;96.50
44166;DHT22;30476;53.468;9.826;2022-12-18T08:51:58;-2.30;96.50
44166;DHT22;30476;53.468;9.826;2022-12-18T08:54:25;-2.30;96.50
44166;DHT22;30476;53.468;9.826;2022-12-18T08:56:51;-2.30;96.50
44166;DHT22;30476;53.468;9.826;2022-12-18T08:59:17;-2.20;96.50
44166;DHT22;30476;53.468;9.826;2022-12-18T09:01:43;-2.20;96.50
44166;DHT22;30476;53.468;9.826;2022-12-18T09:04:09;-2.10;96.50
44166;DHT22;30476;53.468;9.826;2022-12-18T09:06:36;-2.10;96.50
44166;DHT22;30476;53.468;9.826;2022-12-18T09:09:03;-2.10;96.50
44166;DHT22;30476;53.468;9.826;2022-12-18T09:11:29;-2.00;96.50
44166;DHT22;30476;53.468;9.826;2022-12-18T09:13:56;-2.00;96.50
44166;DHT22;30476;53.468;9.826;2022-12-18T09:16:23;-2.00;96.50
44166;DHT22;30476;53.468;9.826;2022-12-18T09:18:49;-2.00;96.50
44166;DHT22;30476;53.468;9.826;2022-12-18T09:21:18;-1.90;96.50
44166;DHT22;30476;53.468;9.826;2022-12-18T09:23:48;-1.80;96.50
44166;DHT22;30476;53.468;9.826;2022-12-18T09:26:14;-1.80;96.50
44166;DHT22;30476;53.468;9.826;2022-12-18T09:28:40;-1.70;96.50
44166;DHT22;30476;53.468;9.826;2022-12-18T09:31:07;-1.60;96.50
44166;DHT22;30476;53.468;9.826;2022-12-18T09:33:36;-1.60;96.50
44166;DHT22;30476;53.468;9.826;2022-12-18T09:36:04;-1.60;96.40
44166;DHT22;30476;53.468;9.826;2022-12-18T09:38:30;-1.60;96.40
44166;DHT22;30476;53.468;9.826;2022-12-18T09:43:51;-1.50;96.30
44166;DHT22;30476;53.468;9.826;2022-12-18T09:46:30;-1.40;96.40
44166;DHT22;30476;53.468;9.826;2022-12-18T09:49:02;-1.30;96.30
44166;DHT22;30476;53.468;9.826;2022-12-18T09:51:34;-1.30;96.20
44166;DHT22;30476;53.468;9.826;2022-12-18T09:54:10;-1.20;96.20
44166;DHT22;30476;53.468;9.826;2022-12-18T09:56:40;-1.20;96.20
44166;DHT22;30476;53.468;9.826;2022-12-18T09:59:09;-1.20;96.20
44166;DHT22;30476;53.468;9.826;2022-12-18T10:01:41;-1.00;96.20
44166;DHT22;30476;53.468;9.826;2022-12-18T10:04:08;-1.00;96.20
44166;DHT22;30476;53.468;9.826;2022-12-18T10:06:52;-0.90;96.20
44166;DHT22;30476;53.468;9.826;2022-12-18T10:12:30;-0.80;96.10
44166;DHT22;30476;53.468;9.826;2022-12-18T10:20:40;-0.70;95.90
44166;DHT22;30476;53.468;9.826;2022-12-18T10:23:39;-0.60;95.80
44166;DHT22;30476;53.468;9.826;2022-12-18T10:26:09;-0.50;95.80
44166;DHT22;30476;53.468;9.826;2022-12-18T10:28:38;-0.50;95.80
44166;DHT22;30476;53.468;9.826;2022-12-18T10:31:17;-0.40;95.80
44166;DHT22;30476;53.468;9.826;2022-12-18T10:33:44;-0.40;95.70
44166;DHT22;30476;53.468;9.826;2022-12-18T10:36:10;-0.30;95.70
44166;DHT22;30476;53.468;9.826;2022-12-18T10:38:36;-0.30;95.60
44166;DHT22;30476;53.468;9.826;2022-12-18T10:41:13;-0.10;95.70
44166;DHT22;30476;53.468;9.826;2022-12-18T10:46:36;0.00;95.60
44166;DHT22;30476;53.468;9.826;2022-12-18T10:49:02;0.00;95.40
44166;DHT22;30476;53.468;9.826;2022-12-18T10:51:33;0.10;95.10
44166;DHT22;30476;53.468;9.826;2022-12-18T10:54:05;0.20;95.10
44166;DHT22;30476;53.468;9.826;2022-12-18T10:56:35;0.30;95.10
44166;DHT22;30476;53.468;9.826;2022-12-18T10:59:07;0.30;94.90
44166;DHT22;30476;53.468;9.826;2022-12-18T11:01:53;0.30;94.90
44166;DHT22;30476;53.468;9.826;2022-12-18T11:04:28;0.40;94.80
44166;DHT22;30476;53.468;9.826;2022-12-18T11:07:00;0.50;94.90
44166;DHT22;30476;53.468;9.826;2022-12-18T11:09:31;0.60;95.10
44166;DHT22;30476;53.468;9.826;2022-12-18T11:12:00;0.60;94.90
44166;DHT22;30476;53.468;9.826;2022-12-18T11:14:29;0.70;94.60
44166;DHT22;30476;53.468;9.826;2022-12-18T11:16:57;0.80;94.80
44166;DHT22;30476;53.468;9.826;2022-12-18T11:19:35;0.90;94.40
44166;DHT22;30476;53.468;9.826;2022-12-18T11:27:23;1.20;94.50
44166;DHT22;30476;53.468;9.826;2022-12-18T11:29:51;1.30;94.30
44166;DHT22;30476;53.468;9.826;2022-12-18T11:32:40;1.30;94.10
44166;DHT22;30476;53.468;9.826;2022-12-18T11:35:40;1.40;93.70
44166;DHT22;30476;53.468;9.826;2022-12-18T11:40:49;1.60;94.00
44166;DHT22;30476;53.468;9.826;2022-12-18T11:43:25;1.60;93.80
44166;DHT22;30476;53.468;9.826;2022-12-18T11:46:01;1.70;93.80
44166;DHT22;30476;53.468;9.826;2022-12-18T11:48:37;1.70;93.60
44166;DHT22;30476;53.468;9.826;2022-12-18T11:51:18;1.80;93.40
44166;DHT22;30476;53.468;9.826;2022-12-18T11:53:45;1.80;93.10
44166;DHT22;30476;53.468;9.826;2022-12-18T12:01:59;2.00;93.60
44166;DHT22;30476;53.468;9.826;2022-12-18T12:04:31;2.00;93.50
44166;DHT22;30476;53.468;9.826;2022-12-18T12:13:38;2.20;94.70
44166;DHT22;30476;53.468;9.826;2022-12-18T12:19:15;2.40;94.60
44166;DHT22;30476;53.468;9.826;2022-12-18T12:21:55;2.60;95.70
44166;DHT22;30476;53.468;9.826;2022-12-18T12:30:39;2.80;95.80
44166;DHT22;30476;53.468;9.826;2022-12-18T12:35:55;3.00;94.80
44166;DHT22;30476;53.468;9.826;2022-12-18T12:38:30;3.00;94.50
44166;DHT22;30476;53.468;9.826;2022-12-18T12:41:06;3.10;94.20
44166;DHT22;30476;53.468;9.826;2022-12-18T12:43:57;3.10;94.20
44166;DHT22;30476;53.468;9.826;2022-12-18T12:46:24;3.10;94.20
44166;DHT22;30476;53.468;9.826;2022-12-18T12:48:52;3.10;93.60
44166;DHT22;30476;53.468;9.826;2022-12-18T12:53:46;3.00;92.00
44166;DHT22;30476;53.468;9.826;2022-12-18T12:56:16;3.00;91.80
44166;DHT22;30476;53.468;9.826;2022-12-18T12:58:52;3.00;92.10
44166;DHT22;30476;53.468;9.826;2022-12-18T13:06:59;2.80;91.50
44166;DHT22;30476;53.468;9.826;2022-12-18T13:09:31;2.70;91.30
44166;DHT22;30476;53.468;9.826;2022-12-18T13:12:03;2.70;91.50
44166;DHT22;30476;53.468;9.826;2022-12-18T13:14:48;2.70;91.70
44166;DHT22;30476;53.468;9.826;2022-12-18T13:17:28;2.60;91.80
44166;DHT22;30476;53.468;9.826;2022-12-18T13:20:10;2.60;91.80
44166;DHT22;30476;53.468;9.826;2022-12-18T13:22:47;2.60;91.50
44166;DHT22;30476;53.468;9.826;2022-12-18T13:25:37;2.60;91.40
44166;DHT22;30476;53.468;9.826;2022-12-18T13:28:12;2.60;91.00
44166;DHT22;30476;53.468;9.826;2022-12-18T13:41:01;2.40;91.40
44166;DHT22;30476;53.468;9.826;2022-12-18T13:43:28;2.40;91.30
44166;DHT22;30476;53.468;9.826;2022-12-18T13:51:29;2.20;91.20
44166;DHT22;30476;53.468;9.826;2022-12-18T13:54:02;2.10;91.20
44166;DHT22;30476;53.468;9.826;2022-12-18T13:56:31;2.10;91.40
44166;DHT22;30476;53.468;9.826;2022-12-18T13:59:26;2.00;91.40
44166;DHT22;30476;53.468;9.826;2022-12-18T14:02:00;2.00;91.30
44166;DHT22;30476;53.468;9.826;2022-12-18T14:04:33;1.90;91.00
44166;DHT22;30476;53.468;9.826;2022-12-18T14:07:15;1.90;91.00
44166;DHT22;30476;53.468;9.826;2022-12-18T14:09:44;1.80;90.90
44166;DHT22;30476;53.468;9.826;2022-12-18T14:12:31;1.80;90.90
44166;DHT22;30476;53.468;9.826;2022-12-18T14:15:35;1.70;90.90
44166;DHT22;30476;53.468;9.826;2022-12-18T14:18:15;1.60;91.00
44166;DHT22;30476;53.468;9.826;2022-12-18T14:20:44;1.60;91.10
44166;DHT22;30476;53.468;9.826;2022-12-18T14:25:54;1.50;91.60
44166;DHT22;30476;53.468;9.826;2022-12-18T14:28:20;1.40;91.00
44166;DHT22;30476;53.468;9.826;2022-12-18T14:30:48;1.30;91.10
44166;DHT22;30476;53.468;9.826;2022-12-18T14:33:22;1.30;91.10
44166;DHT22;30476;53.468;9.826;2022-12-18T14:36:00;1.20;91.30
44166;DHT22;30476;53.468;9.826;2022-12-18T14:38:37;1.20;91.20
44166;DHT22;30476;53.468;9.826;2022-12-18T14:41:06;1.00;91.30
44166;DHT22;30476;53.468;9.826;2022-12-18T14:43:36;1.00;91.50
44166;DHT22;30476;53.468;9.826;2022-12-18T14:46:05;0.90;91.30
44166;DHT22;30476;53.468;9.826;2022-12-18T14:48:42;0.90;91.90
44166;DHT22;30476;53.468;9.826;2022-12-18T14:51:19;0.80;91.60
44166;DHT22;30476;53.468;9.826;2022-12-18T14:53:47;0.70;91.50
44166;DHT22;30476;53.468;9.826;2022-12-18T14:56:19;0.70;91.60
44166;DHT22;30476;53.468;9.826;2022-12-18T14:58:57;0.60;91.70
44166;DHT22;30476;53.468;9.826;2022-12-18T15:01:36;0.60;91.70
44166;DHT22;30476;53.468;9.826;2022-12-18T15:04:04;0.40;91.90
44166;DHT22;30476;53.468;9.826;2022-12-18T15:06:36;0.40;92.00
44166;DHT22;30476;53.468;9.826;2022-12-18T15:09:23;0.30;92.10
44166;DHT22;30476;53.468;9.826;2022-12-18T15:11:56;0.20;92.20
44166;DHT22;30476;53.468;9.826;2022-12-18T15:14:39;0.20;92.20
44166;DHT22;30476;53.468;9.826;2022-12-18T15:17:16;0.20;92.30
44166;DHT22;30476;53.468;9.826;2022-12-18T15:19:44;0.10;92.40
44166;DHT22;30476;53.468;9.826;2022-12-18T15:22:26;0.00;92.40
44166;DHT22;30476;53.468;9.826;2022-12-18T15:24:54;0.00;92.90
44166;DHT22;30476;53.468;9.826;2022-12-18T15:27:25;-0.10;92.70
44166;DHT22;30476;53.468;9.826;2022-12-18T15:32:36;-0.20;92.90
44166;DHT22;30476;53.468;9.826;2022-12-18T15:37:37;-0.30;93.10
44166;DHT22;30476;53.468;9.826;2022-12-18T15:40:04;-0.30;93.10
44166;DHT22;30476;53.468;9.826;2022-12-18T15:42:30;-0.40;93.30
44166;DHT22;30476;53.468;9.826;2022-12-18T15:45:14;-0.40;93.40
44166;DHT22;30476;53.468;9.826;2022-12-18T15:47:42;-0.40;93.40
44166;DHT22;30476;53.468;9.826;2022-12-18T15:50:08;-0.50;93.50
44166;DHT22;30476;53.468;9.826;2022-12-18T15:52:40;-0.50;93.70
44166;DHT22;30476;53.468;9.826;2022-12-18T15:55:14;-0.50;93.60
44166;DHT22;30476;53.468;9.826;2022-12-18T15:57:59;-0.60;93.70
44166;DHT22;30476;53.468;9.826;2022-12-18T16:00:26;-0.60;93.80
44166;DHT22;30476;53.468;9.826;2022-12-18T16:02:52;-0.60;93.80
44166;DHT22;30476;53.468;9.826;2022-12-18T16:05:19;-0.50;93.90
44166;DHT22;30476;53.468;9.826;2022-12-18T16:07:46;-0.50;93.90
44166;DHT22;30476;53.468;9.826;2022-12-18T16:10:12;-0.50;94.00
44166;DHT22;30476;53.468;9.826;2022-12-18T16:12:38;-0.60;94.00
44166;DHT22;30476;53.468;9.826;2022-12-18T16:15:05;-0.60;94.10
44166;DHT22;30476;53.468;9.826;2022-12-18T16:17:31;-0.60;94.10
44166;DHT22;30476;53.468;9.826;2022-12-18T16:19:57;-0.70;94.10
44166;DHT22;30476;53.468;9.826;2022-12-18T16:22:27;-0.70;94.20
44166;DHT22;30476;53.468;9.826;2022-12-18T16:24:54;-0.70;94.30
44166;DHT22;30476;53.468;9.826;2022-12-18T16:27:21;-0.70;94.30
44166;DHT22;30476;53.468;9.826;2022-12-18T16:29:48;-0.70;94.40
44166;DHT22;30476;53.468;9.826;2022-12-18T16:32:19;-0.70;94.40
44166;DHT22;30476;53.468;9.826;2022-12-18T16:34:46;-0.70;94.40
44166;DHT22;30476;53.468;9.826;2022-12-18T16:37:13;-0.70;94.40
44166;DHT22;30476;53.468;9.826;2022-12-18T16:39:40;-0.70;94.50
44166;DHT22;30476;53.468;9.826;2022-12-18T16:42:13;-0.70;94.50
44166;DHT22;30476;53.468;9.826;2022-12-18T16:44:40;-0.70;94.60
44166;DHT22;30476;53.468;9.826;2022-12-18T16:47:06;-0.70;94.70
44166;DHT22;30476;53.468;9.826;2022-12-18T16:49:32;-0.70;94.70
44166;DHT22;30476;53.468;9.826;2022-12-18T16:51:58;-0.70;94.70
44166;DHT22;30476;53.468;9.826;2022-12-18T16:54:24;-0.80;94.70
44166;DHT22;30476;53.468;9.826;2022-12-18T16:56:50;-0.70;94.80
44166;DHT22;30476;53.468;9.826;2022-12-18T16:59:16;-0.70;94.80
44166;DHT22;30476;53.468;9.826;2022-12-18T17:01:42;-0.80;94.80
44166;DHT22;30476;53.468;9.826;2022-12-18T17:04:08;-0.80;94.90
44166;DHT22;30476;53.468;9.826;2022-12-18T17:06:39;-0.70;95.00
44166;DHT22;30476;53.468;9.826;2022-12-18T17:09:08;-0.70;94.90
44166;DHT22;30476;53.468;9.826;2022-12-18T17:11:35;-0.70;94.90
44166;DHT22;30476;53.468;9.826;2022-12-18T17:14:12;-0.70;95.00
44166;DHT22;30476;53.468;9.826;2022-12-18T17:16:38;-0.70;95.00
44166;DHT22;30476;53.468;9.826;2022-12-18T17:19:04;-0.70;95.00
44166;DHT22;30476;53.468;9.826;2022-12-18T17:21:30;-0.70;95.10
44166;DHT22;30476;53.468;9.826;2022-12-18T17:23:59;-0.70;95.10
44166;DHT22;30476;53.468;9.826;2022-12-18T17:26:25;-0.70;95.10
44166;DHT22;30476;53.468;9.826;2022-12-18T17:28:51;-0.80;95.20
44166;DHT22;30476;53.468;9.826;2022-12-18T17:31:19;-0.70;95.50